Orange, California
Current Conditions -  °F | °C
As of 2:53 PM on Monday 24 Nov 2014 (Local Time) from KSNA Reporting Station
Scattered Clouds Scattered Clouds  
Wind Chill: 84°   Ceiling: Unl
Heat Index: 84°   Visibility: 10mi
Dew Point:   Wind: 16mph
Humidity: 6%   Direction: 70°ENE
Pressure: 30.17"   Gusts: 22mph
Location:  33.79°N, 117.85°W
Report Text: KSNA 242253Z 07014G19KT 10SM SCT300 29/M13 A3017 RMK AO2 SLP215 T02891128
Loading
Personal Weather Stations






























Interactive Weather Map New forecast layout! Learn more

10-Day Weather Forecast

Advertisements
Track Severe Weather on mobile